createdAt,value
2017-09-07T00:01:55.516Z,15.50
2017-09-07T00:04:22.946Z,15.40
2017-09-07T00:06:50.390Z,15.30
2017-09-07T00:09:17.830Z,15.30
2017-09-07T00:11:45.261Z,15.20
2017-09-07T00:14:12.697Z,15.10
2017-09-07T00:16:40.138Z,15.10
2017-09-07T00:19:07.592Z,15.00
2017-09-07T00:21:35.026Z,15.00
2017-09-07T00:24:02.456Z,15.00
2017-09-07T00:26:29.897Z,15.00
2017-09-07T00:28:57.324Z,14.90
2017-09-07T00:31:24.761Z,14.90
2017-09-07T00:33:52.192Z,14.80
2017-09-07T00:36:19.633Z,14.80
2017-09-07T00:38:47.074Z,14.80
2017-09-07T00:41:14.496Z,14.70
2017-09-07T00:43:41.950Z,14.70
2017-09-07T00:46:09.372Z,14.70
2017-09-07T00:48:36.796Z,14.60
2017-09-07T00:51:04.225Z,14.60
2017-09-07T00:53:31.667Z,14.50
2017-09-07T00:55:59.089Z,14.50
2017-09-07T00:58:26.520Z,14.50
2017-09-07T01:00:53.944Z,14.50
2017-09-07T01:03:21.389Z,14.40
2017-09-07T01:05:48.822Z,14.40
2017-09-07T01:08:16.261Z,14.50
2017-09-07T01:10:43.685Z,14.50
2017-09-07T01:13:11.120Z,14.50
2017-09-07T01:15:38.549Z,14.60
2017-09-07T01:18:05.991Z,14.60
2017-09-07T01:20:33.420Z,14.70
2017-09-07T01:23:00.862Z,14.70
2017-09-07T01:25:28.335Z,14.80
2017-09-07T01:27:55.778Z,14.80
2017-09-07T01:30:32.988Z,14.90
2017-09-07T01:33:00.423Z,14.90
2017-09-07T01:35:27.854Z,14.90
2017-09-07T01:37:55.280Z,15.00
2017-09-07T01:40:22.713Z,15.00
2017-09-07T01:42:50.141Z,15.00
2017-09-07T01:45:17.580Z,15.00
2017-09-07T01:47:45.015Z,15.00
2017-09-07T01:50:12.453Z,15.00
2017-09-07T01:52:39.876Z,15.00
2017-09-07T01:55:07.316Z,15.00
2017-09-07T01:57:34.744Z,15.10
2017-09-07T02:00:02.181Z,15.10
2017-09-07T02:02:30.405Z,15.10
2017-09-07T02:04:57.824Z,15.10
2017-09-07T02:07:25.266Z,15.10
2017-09-07T02:09:52.708Z,15.10
2017-09-07T02:12:20.140Z,15.20
2017-09-07T02:14:47.561Z,15.20
2017-09-07T02:17:15.001Z,15.20
2017-09-07T02:19:42.436Z,15.20
2017-09-07T02:22:09.897Z,15.20
2017-09-07T02:24:37.309Z,15.20
2017-09-07T02:27:04.750Z,15.20
2017-09-07T02:29:32.171Z,15.20
2017-09-07T02:31:59.600Z,15.30
2017-09-07T02:34:27.037Z,15.30
2017-09-07T02:36:54.482Z,15.30
2017-09-07T02:39:21.917Z,15.30
2017-09-07T02:41:49.353Z,15.30
2017-09-07T02:44:16.780Z,15.30
2017-09-07T02:46:44.213Z,15.40
2017-09-07T02:49:11.646Z,15.40
2017-09-07T02:51:39.080Z,15.40
2017-09-07T02:54:06.508Z,15.30
2017-09-07T02:56:33.940Z,15.30
2017-09-07T02:59:01.367Z,15.30
2017-09-07T03:01:28.797Z,15.30
2017-09-07T03:03:56.233Z,15.30
2017-09-07T03:06:23.667Z,15.30
2017-09-07T03:08:51.096Z,15.30
2017-09-07T03:11:18.524Z,15.30
2017-09-07T03:13:45.952Z,15.30
2017-09-07T03:16:13.390Z,15.30
2017-09-07T03:18:40.856Z,15.30
2017-09-07T03:21:08.264Z,15.40
2017-09-07T03:23:35.713Z,15.30
2017-09-07T03:26:03.142Z,15.30
2017-09-07T03:28:30.575Z,15.40
2017-09-07T03:30:58.009Z,15.40
2017-09-07T03:33:25.440Z,15.40
2017-09-07T03:35:52.871Z,15.40
2017-09-07T03:38:20.308Z,15.40
2017-09-07T03:40:47.736Z,15.40
2017-09-07T03:43:15.185Z,15.50
2017-09-07T03:45:42.616Z,15.50
2017-09-07T03:48:10.053Z,15.40
2017-09-07T03:50:37.489Z,15.40
2017-09-07T03:53:04.988Z,15.40
2017-09-07T03:55:32.478Z,15.50
2017-09-07T03:57:59.909Z,15.50
2017-09-07T04:00:27.348Z,15.50
2017-09-07T04:02:54.788Z,15.50
2017-09-07T04:05:22.227Z,15.50
2017-09-07T04:07:49.657Z,15.50
2017-09-07T04:10:17.100Z,15.40
2017-09-07T04:12:44.524Z,15.40
2017-09-07T04:15:11.960Z,15.40
2017-09-07T04:17:39.464Z,15.20
2017-09-07T04:20:06.897Z,15.20
2017-09-07T04:22:34.332Z,15.20
2017-09-07T04:25:01.764Z,15.20
2017-09-07T04:27:29.296Z,15.20
2017-09-07T04:29:56.740Z,15.20
2017-09-07T04:32:25.679Z,15.20
2017-09-07T04:34:53.341Z,15.20
2017-09-07T04:37:20.768Z,15.20
2017-09-07T04:39:48.975Z,15.20
2017-09-07T04:42:16.396Z,15.20
2017-09-07T04:44:43.853Z,15.20
2017-09-07T04:47:11.289Z,15.20
2017-09-07T04:49:38.713Z,15.20
2017-09-07T04:52:06.152Z,15.30
2017-09-07T04:54:33.586Z,15.30
2017-09-07T04:57:01.024Z,15.20
2017-09-07T04:59:28.449Z,15.20
2017-09-07T05:01:55.909Z,15.20
2017-09-07T05:04:23.347Z,15.20
2017-09-07T05:06:50.784Z,15.30
2017-09-07T05:09:18.218Z,15.20
2017-09-07T05:11:45.648Z,15.20
2017-09-07T05:14:13.084Z,15.20
2017-09-07T05:16:40.516Z,15.10
2017-09-07T05:19:07.949Z,15.10
2017-09-07T05:21:35.382Z,15.20
2017-09-07T05:24:02.812Z,15.20
2017-09-07T05:26:30.259Z,15.20
2017-09-07T05:28:57.684Z,15.20
2017-09-07T05:31:25.125Z,15.20
2017-09-07T05:33:52.558Z,15.20
2017-09-07T05:36:19.984Z,15.10
2017-09-07T05:38:47.426Z,15.10
2017-09-07T05:41:14.853Z,15.10
2017-09-07T05:43:42.315Z,15.20
2017-09-07T05:46:09.751Z,15.20
2017-09-07T05:48:37.224Z,15.20
2017-09-07T05:51:04.662Z,15.30
2017-09-07T05:53:32.100Z,15.30
2017-09-07T05:55:59.541Z,15.30
2017-09-07T05:58:26.976Z,15.40
2017-09-07T06:00:54.413Z,15.40
2017-09-07T06:03:21.844Z,15.40
2017-09-07T06:05:49.272Z,15.40
2017-09-07T06:08:16.708Z,15.50
2017-09-07T06:10:44.136Z,15.50
2017-09-07T06:13:11.581Z,15.50
2017-09-07T06:15:39.008Z,15.50
2017-09-07T06:18:06.449Z,15.60
2017-09-07T06:20:33.877Z,15.70
2017-09-07T06:23:01.308Z,15.70
2017-09-07T06:25:28.741Z,15.80
2017-09-07T06:27:56.180Z,15.80
2017-09-07T06:30:23.619Z,15.90
2017-09-07T06:32:51.069Z,15.80
2017-09-07T06:35:18.508Z,15.80
2017-09-07T06:37:45.953Z,15.80
2017-09-07T06:40:13.384Z,15.80
2017-09-07T06:42:40.820Z,15.80
2017-09-07T06:45:08.256Z,15.80
2017-09-07T06:47:35.688Z,15.80
2017-09-07T06:50:42.000Z,15.80
2017-09-07T06:53:09.432Z,15.80
2017-09-07T06:55:36.869Z,15.90
2017-09-07T06:58:05.064Z,16.10
2017-09-07T07:00:32.505Z,16.10
2017-09-07T07:03:00.721Z,16.20
2017-09-07T07:05:28.157Z,16.20
2017-09-07T07:07:55.580Z,16.20
2017-09-07T07:10:23.014Z,16.20
2017-09-07T07:12:50.462Z,16.20
2017-09-07T07:15:17.928Z,16.30
2017-09-07T07:17:45.365Z,16.30
2017-09-07T07:20:12.814Z,16.30
2017-09-07T07:22:40.240Z,16.40
2017-09-07T07:25:08.457Z,16.50
2017-09-07T07:27:35.886Z,16.50
2017-09-07T07:30:03.329Z,16.60
2017-09-07T07:32:31.536Z,16.70
2017-09-07T07:34:58.969Z,16.70
2017-09-07T07:37:26.397Z,16.70
2017-09-07T07:39:54.605Z,16.90
2017-09-07T07:42:22.038Z,16.90
2017-09-07T07:44:50.909Z,16.90
2017-09-07T07:47:18.350Z,16.90
2017-09-07T07:49:45.787Z,17.00
2017-09-07T07:52:13.216Z,17.10
2017-09-07T07:54:40.651Z,17.10
2017-09-07T07:57:08.892Z,17.30
2017-09-07T07:59:36.314Z,17.30
2017-09-07T08:02:03.749Z,17.40
2017-09-07T08:04:31.944Z,17.50
2017-09-07T08:06:59.381Z,17.50
2017-09-07T08:09:27.572Z,17.70
2017-09-07T08:11:55.009Z,17.60
2017-09-07T08:14:23.207Z,17.70
2017-09-07T08:16:50.639Z,17.60
2017-09-07T08:19:18.834Z,18.00
2017-09-07T08:21:46.262Z,18.00
2017-09-07T08:24:14.461Z,18.30
2017-09-07T08:26:41.901Z,18.30
2017-09-07T08:29:10.098Z,18.70
2017-09-07T08:31:37.527Z,18.70
2017-09-07T08:34:05.808Z,19.10
2017-09-07T08:36:34.082Z,19.30
2017-09-07T08:39:02.276Z,19.60
2017-09-07T08:41:29.743Z,19.60
2017-09-07T08:43:57.170Z,19.80
2017-09-07T08:46:25.377Z,20.00
2017-09-07T08:48:52.823Z,20.00
2017-09-07T08:51:21.024Z,20.00
2017-09-07T08:53:48.537Z,19.90
2017-09-07T08:56:16.749Z,20.10
2017-09-07T08:58:44.274Z,20.10
2017-09-07T09:01:12.484Z,20.50
2017-09-07T09:03:39.900Z,20.50
2017-09-07T09:06:08.098Z,20.80
2017-09-07T09:08:35.540Z,20.80
2017-09-07T09:11:02.968Z,20.80
2017-09-07T09:13:30.411Z,20.90
2017-09-07T09:15:57.838Z,21.30
2017-09-07T09:18:25.277Z,21.50
2017-09-07T09:20:52.810Z,22.00
2017-09-07T09:23:21.013Z,22.70
2017-09-07T09:25:48.449Z,22.70
2017-09-07T09:28:16.655Z,23.40
2017-09-07T09:30:44.098Z,23.30
2017-09-07T09:33:11.533Z,23.70
2017-09-07T09:35:39.733Z,24.20
2017-09-07T09:38:07.273Z,24.10
2017-09-07T09:40:35.538Z,24.60
2017-09-07T09:43:03.748Z,24.80
2017-09-07T09:45:31.177Z,24.80
2017-09-07T09:47:59.377Z,25.30
2017-09-07T09:50:26.816Z,25.30
2017-09-07T09:52:54.252Z,25.40
2017-09-07T09:55:22.528Z,25.40
2017-09-07T09:57:50.725Z,25.20
2017-09-07T10:00:18.927Z,25.20
2017-09-07T10:02:46.363Z,25.10
2017-09-07T10:05:13.807Z,25.10
2017-09-07T10:07:42.069Z,25.20
2017-09-07T10:10:09.607Z,25.10
2017-09-07T10:12:37.040Z,25.20
2017-09-07T10:15:04.490Z,25.00
2017-09-07T10:17:31.919Z,24.80
2017-09-07T10:20:00.122Z,25.00
2017-09-07T10:22:27.561Z,24.90
2017-09-07T10:24:54.998Z,25.20
2017-09-07T10:27:23.189Z,25.40
2017-09-07T10:29:50.721Z,25.40
2017-09-07T10:32:18.938Z,25.60
2017-09-07T10:34:46.365Z,25.60
2017-09-07T10:37:14.568Z,24.90
2017-09-07T10:39:42.009Z,24.90
2017-09-07T10:42:09.432Z,24.60
2017-09-07T10:44:36.880Z,24.40
2017-09-07T10:47:04.319Z,24.00
2017-09-07T10:49:31.757Z,23.80
2017-09-07T10:51:59.192Z,23.60
2017-09-07T10:54:26.624Z,23.30
2017-09-07T10:56:54.825Z,22.80
2017-09-07T10:59:22.278Z,22.80
2017-09-07T11:01:50.479Z,22.60
2017-09-07T11:04:19.233Z,22.60
2017-09-07T11:06:46.664Z,22.40
2017-09-07T11:09:14.133Z,22.40
2017-09-07T11:11:42.348Z,22.40
2017-09-07T11:14:09.765Z,22.40
2017-09-07T11:16:37.964Z,22.20
2017-09-07T11:19:05.397Z,22.20
2017-09-07T11:21:33.601Z,22.40
2017-09-07T11:24:01.032Z,22.30
2017-09-07T11:26:29.232Z,22.50
2017-09-07T11:28:56.672Z,22.40
2017-09-07T11:31:24.341Z,22.50
2017-09-07T11:33:52.540Z,22.40
2017-09-07T11:36:19.976Z,22.40
2017-09-07T11:38:47.409Z,22.30
2017-09-07T11:41:15.631Z,22.10
2017-09-07T11:43:43.056Z,22.10
2017-09-07T11:46:10.486Z,22.10
2017-09-07T11:48:37.924Z,22.10
2017-09-07T11:51:05.415Z,22.00
2017-09-07T11:53:33.608Z,22.00
2017-09-07T11:56:01.041Z,21.90
2017-09-07T11:58:29.245Z,21.90
2017-09-07T12:00:56.674Z,21.90
2017-09-07T12:03:24.873Z,21.80
2017-09-07T12:05:52.302Z,21.80
2017-09-07T12:08:20.537Z,21.60
2017-09-07T12:10:47.967Z,21.60
2017-09-07T12:13:15.431Z,21.60
2017-09-07T12:15:42.856Z,21.50
2017-09-07T12:18:11.069Z,21.40
2017-09-07T12:20:38.503Z,21.40
2017-09-07T12:23:06.709Z,21.30
2017-09-07T12:25:34.137Z,21.30
2017-09-07T12:28:01.578Z,21.30
2017-09-07T12:30:29.962Z,21.40
2017-09-07T12:32:58.176Z,21.50
2017-09-07T12:35:25.607Z,21.40
2017-09-07T12:37:53.064Z,21.50
2017-09-07T12:40:20.490Z,21.60
2017-09-07T12:42:48.730Z,21.50
2017-09-07T12:45:16.167Z,21.50
2017-09-07T12:47:43.637Z,21.50
2017-09-07T12:50:11.138Z,21.60
2017-09-07T12:52:39.329Z,21.50
2017-09-07T12:55:06.846Z,21.50
2017-09-07T12:57:34.418Z,21.50
2017-09-07T13:00:01.869Z,21.50
2017-09-07T13:02:29.306Z,21.60
2017-09-07T13:04:56.748Z,21.60
2017-09-07T13:07:24.193Z,21.50
2017-09-07T13:09:51.626Z,21.60
2017-09-07T13:12:19.079Z,21.70
2017-09-07T13:14:47.277Z,21.60
2017-09-07T13:17:14.711Z,21.60
2017-09-07T13:19:43.214Z,21.80
2017-09-07T13:22:10.650Z,21.80
2017-09-07T13:24:38.845Z,21.60
2017-09-07T13:27:06.281Z,21.60
2017-09-07T13:29:34.499Z,21.60
2017-09-07T13:32:01.921Z,21.60
2017-09-07T13:34:29.382Z,21.40
2017-09-07T13:36:57.583Z,21.10
2017-09-07T13:39:25.013Z,21.10
2017-09-07T13:41:52.446Z,21.00
2017-09-07T13:44:20.652Z,21.00
2017-09-07T13:46:48.091Z,21.00
2017-09-07T13:49:16.295Z,21.00
2017-09-07T13:51:43.725Z,20.90
2017-09-07T13:54:11.154Z,20.80
2017-09-07T13:56:38.596Z,20.70
2017-09-07T13:59:06.041Z,20.70
2017-09-07T14:01:33.482Z,20.70
2017-09-07T14:04:00.922Z,20.60
2017-09-07T14:06:28.366Z,20.70
2017-09-07T14:08:56.571Z,20.80
2017-09-07T14:11:24.014Z,20.80
2017-09-07T14:13:51.446Z,20.80
2017-09-07T14:16:19.645Z,20.80
2017-09-07T14:18:47.166Z,20.70
2017-09-07T14:21:14.600Z,20.80
2017-09-07T14:23:42.034Z,20.80
2017-09-07T14:26:09.470Z,20.70
2017-09-07T14:28:36.896Z,20.70
2017-09-07T14:31:04.353Z,20.60
2017-09-07T14:33:31.774Z,20.60
2017-09-07T14:35:59.215Z,20.60
2017-09-07T14:38:26.669Z,20.60
2017-09-07T14:40:54.093Z,20.50
2017-09-07T14:43:22.304Z,20.50
2017-09-07T14:45:49.750Z,20.50
2017-09-07T14:48:17.184Z,20.50
2017-09-07T14:50:44.631Z,20.40
2017-09-07T14:53:12.844Z,20.50
2017-09-07T14:55:40.280Z,20.50
2017-09-07T14:58:08.483Z,20.50
2017-09-07T15:00:35.915Z,20.50
2017-09-07T15:03:03.458Z,20.50
2017-09-07T15:05:31.680Z,20.60
2017-09-07T15:07:59.110Z,20.50
2017-09-07T15:10:26.533Z,20.60
2017-09-07T15:12:54.743Z,20.60
2017-09-07T15:15:22.256Z,20.60
2017-09-07T15:17:49.680Z,20.60
2017-09-07T15:20:18.197Z,20.70
2017-09-07T15:22:45.635Z,20.60
2017-09-07T15:25:13.068Z,20.60
2017-09-07T15:27:40.542Z,20.40
2017-09-07T15:30:08.025Z,20.40
2017-09-07T15:32:35.456Z,20.40
2017-09-07T15:35:02.958Z,20.40
2017-09-07T15:37:31.149Z,20.20
2017-09-07T15:39:58.583Z,20.20
2017-09-07T15:42:26.785Z,20.20
2017-09-07T15:44:54.224Z,20.20
2017-09-07T15:47:22.429Z,20.30
2017-09-07T15:49:49.873Z,20.30
2017-09-07T15:52:17.312Z,20.40
2017-09-07T15:54:45.522Z,20.40
2017-09-07T15:57:12.952Z,20.30
2017-09-07T15:59:40.389Z,20.30
2017-09-07T16:02:08.600Z,20.30
2017-09-07T16:04:36.033Z,20.20
2017-09-07T16:07:04.249Z,20.30
2017-09-07T16:09:31.684Z,20.30
2017-09-07T16:11:59.117Z,20.20
2017-09-07T16:14:27.316Z,20.20
2017-09-07T16:16:54.748Z,20.20
2017-09-07T16:19:22.985Z,20.20
2017-09-07T16:21:50.417Z,20.20
2017-09-07T16:24:17.876Z,20.10
2017-09-07T16:26:45.301Z,20.10
2017-09-07T16:29:13.516Z,20.10
2017-09-07T16:31:40.963Z,20.10
2017-09-07T16:34:08.385Z,20.10
2017-09-07T16:36:38.714Z,20.10
2017-09-07T16:39:06.889Z,20.00
2017-09-07T16:41:34.340Z,20.00
2017-09-07T16:44:02.545Z,19.90
2017-09-07T16:46:29.982Z,19.90
2017-09-07T16:48:57.424Z,19.90
2017-09-07T16:51:25.625Z,19.80
2017-09-07T16:53:53.060Z,19.80
2017-09-07T16:56:21.268Z,19.70
2017-09-07T16:58:48.697Z,19.70
2017-09-07T17:01:16.134Z,19.80
2017-09-07T17:03:44.340Z,19.80
2017-09-07T17:06:11.772Z,19.80
2017-09-07T17:08:39.968Z,19.70
2017-09-07T17:11:07.404Z,19.70
2017-09-07T17:13:35.605Z,19.50
2017-09-07T17:16:03.060Z,19.50
2017-09-07T17:18:30.493Z,19.70
2017-09-07T17:20:58.692Z,19.70
2017-09-07T17:23:26.126Z,19.70
2017-09-07T17:25:54.328Z,19.70
2017-09-07T17:28:21.763Z,19.70
2017-09-07T17:30:49.977Z,19.60
2017-09-07T17:33:17.412Z,19.60
2017-09-07T17:35:44.872Z,19.60
2017-09-07T17:38:12.311Z,19.50
2017-09-07T17:40:40.505Z,19.50
2017-09-07T17:43:07.956Z,19.50
2017-09-07T17:45:35.385Z,19.50
2017-09-07T17:48:03.591Z,19.40
2017-09-07T17:50:31.020Z,19.40
2017-09-07T17:52:59.238Z,19.30
2017-09-07T17:55:27.674Z,19.30
2017-09-07T17:57:55.886Z,19.20
2017-09-07T18:00:23.312Z,19.20
2017-09-07T18:02:51.520Z,19.00
2017-09-07T18:05:18.952Z,19.00
2017-09-07T18:07:46.393Z,18.80
2017-09-07T18:10:14.589Z,18.70
2017-09-07T18:12:42.025Z,18.70
2017-09-07T18:15:10.240Z,18.60
2017-09-07T18:17:37.669Z,18.60
2017-09-07T18:20:05.109Z,18.60
2017-09-07T18:22:32.548Z,18.60
2017-09-07T18:24:59.985Z,18.60
2017-09-07T18:27:27.436Z,18.50
2017-09-07T18:29:54.860Z,18.50
2017-09-07T18:32:23.400Z,18.60
2017-09-07T18:34:50.844Z,18.60
2017-09-07T18:37:18.306Z,18.60
2017-09-07T18:39:45.750Z,18.60
2017-09-07T18:42:13.953Z,18.60
2017-09-07T18:44:41.390Z,18.60
2017-09-07T18:47:08.822Z,18.50
2017-09-07T18:49:36.260Z,18.60
2017-09-07T18:52:03.693Z,18.50
2017-09-07T18:54:31.910Z,18.50
2017-09-07T18:56:59.349Z,18.40
2017-09-07T18:59:26.785Z,18.50
2017-09-07T19:01:54.982Z,18.50
2017-09-07T19:04:22.416Z,18.50
2017-09-07T19:06:50.617Z,18.60
2017-09-07T19:09:18.060Z,18.60
2017-09-07T19:11:45.544Z,18.60
2017-09-07T19:14:12.968Z,18.60
2017-09-07T19:16:41.174Z,18.60
2017-09-07T19:19:08.620Z,18.50
2017-09-07T19:21:36.072Z,18.60
2017-09-07T19:24:03.505Z,18.50
2017-09-07T19:26:31.733Z,18.50
2017-09-07T19:29:01.177Z,18.50
2017-09-07T19:31:29.386Z,18.50
2017-09-07T19:33:56.830Z,18.40
2017-09-07T19:36:25.038Z,18.40
2017-09-07T19:38:52.477Z,18.40
2017-09-07T19:41:19.912Z,18.30
2017-09-07T19:43:48.105Z,18.20
2017-09-07T19:46:15.548Z,18.20
2017-09-07T19:48:43.001Z,18.20
2017-09-07T19:51:11.205Z,18.20
2017-09-07T19:53:38.634Z,18.10
2017-09-07T19:56:06.069Z,18.20
2017-09-07T19:58:34.269Z,18.20
2017-09-07T20:01:02.477Z,18.10
2017-09-07T20:03:29.908Z,18.00
2017-09-07T20:05:57.352Z,18.10
2017-09-07T20:08:25.556Z,17.90
2017-09-07T20:10:53.064Z,17.90
2017-09-07T20:13:21.451Z,18.00
2017-09-07T20:15:49.656Z,18.00
2017-09-07T20:18:17.106Z,17.90
2017-09-07T20:20:45.286Z,18.00
2017-09-07T20:23:12.724Z,17.90
2017-09-07T20:25:40.937Z,18.00
2017-09-07T20:28:08.383Z,18.00
2017-09-07T20:30:35.814Z,18.00
2017-09-07T20:33:04.020Z,18.00
2017-09-07T20:35:31.468Z,18.00
2017-09-07T20:37:58.894Z,18.10
2017-09-07T20:40:27.092Z,18.10
2017-09-07T20:42:54.525Z,18.00
2017-09-07T20:45:22.725Z,18.00
2017-09-07T20:47:50.165Z,18.00
2017-09-07T20:50:17.610Z,18.00
2017-09-07T20:52:45.032Z,18.00
2017-09-07T20:55:12.465Z,18.00
2017-09-07T20:57:39.942Z,18.00
2017-09-07T21:00:07.360Z,18.00
2017-09-07T21:02:34.796Z,18.00
2017-09-07T21:05:03.004Z,18.00
2017-09-07T21:07:30.436Z,18.00
2017-09-07T21:09:58.645Z,18.00
2017-09-07T21:12:26.109Z,17.90
2017-09-07T21:14:53.537Z,18.00
2017-09-07T21:17:20.966Z,18.00
2017-09-07T21:19:49.291Z,18.00
2017-09-07T21:22:16.800Z,18.00
2017-09-07T21:24:45.005Z,17.90
2017-09-07T21:27:12.533Z,17.90
2017-09-07T21:29:40.816Z,17.80
2017-09-07T21:32:09.016Z,17.80
2017-09-07T21:34:36.458Z,17.80
2017-09-07T21:37:04.653Z,17.80
2017-09-07T21:39:32.100Z,17.80
2017-09-07T21:41:59.631Z,17.70
2017-09-07T21:44:27.837Z,17.80
2017-09-07T21:46:55.274Z,17.70
2017-09-07T21:49:23.474Z,17.80
2017-09-07T21:51:50.997Z,17.70
2017-09-07T21:54:19.202Z,17.80
2017-09-07T21:56:46.625Z,17.80
2017-09-07T21:59:15.824Z,17.70
2017-09-07T22:01:44.024Z,17.70
2017-09-07T22:04:11.522Z,17.70
2017-09-07T22:06:38.941Z,17.70
2017-09-07T22:09:06.381Z,17.60
2017-09-07T22:11:34.576Z,17.70
2017-09-07T22:14:02.013Z,17.70
2017-09-07T22:16:30.209Z,17.70
2017-09-07T22:18:57.669Z,17.70
2017-09-07T22:21:25.096Z,17.70
2017-09-07T22:23:53.308Z,17.60
2017-09-07T22:26:20.740Z,17.60
2017-09-07T22:28:48.203Z,17.50
2017-09-07T22:31:16.380Z,17.50
2017-09-07T22:33:43.917Z,17.50
2017-09-07T22:36:12.127Z,17.50
2017-09-07T22:38:39.552Z,17.50
2017-09-07T22:41:07.774Z,17.50
2017-09-07T22:43:35.211Z,17.50
2017-09-07T22:46:02.652Z,17.60
2017-09-07T22:48:30.081Z,17.60
2017-09-07T22:50:57.515Z,17.50
2017-09-07T22:53:25.004Z,17.60
2017-09-07T22:55:53.214Z,17.60
2017-09-07T22:58:20.649Z,17.60
2017-09-07T23:00:48.856Z,17.60
2017-09-07T23:03:16.329Z,17.60
2017-09-07T23:05:43.764Z,17.60
2017-09-07T23:08:11.200Z,17.60
2017-09-07T23:10:39.408Z,17.50
2017-09-07T23:13:06.852Z,17.50
2017-09-07T23:15:34.284Z,17.50
2017-09-07T23:18:02.498Z,17.40
2017-09-07T23:20:29.932Z,17.40
2017-09-07T23:22:57.377Z,17.40
2017-09-07T23:25:25.586Z,17.30
2017-09-07T23:27:53.024Z,17.40
2017-09-07T23:30:20.550Z,17.40
2017-09-07T23:32:48.751Z,17.30
2017-09-07T23:35:16.186Z,17.30
2017-09-07T23:37:44.388Z,17.30
2017-09-07T23:40:11.826Z,17.30
2017-09-07T23:42:40.091Z,17.30
2017-09-07T23:45:07.528Z,17.30
2017-09-07T23:47:34.967Z,17.30
2017-09-07T23:50:02.403Z,17.20
2017-09-07T23:52:29.842Z,17.20
2017-09-07T23:54:57.272Z,17.20
2017-09-07T23:57:25.486Z,17.10
2017-09-07T23:59:52.916Z,17.10
